Wetterstation Vordersexau
Wetterdaten: Woche 17.08.15 - 23.08.15 (KW34)
Datum Zeit Temp. A. Feuchte A. Luftdruck Regen Wind Richtung Taupunkt Windchill Windben
17.08.2015 00:00 13,5 C 83 % 1012,0 hPa 0,0 l/m 0,0 km/h SO 10,7 C 13,5 C 0,0 km/h
17.08.2015 01:00 12,9 C 82 % 1011,9 hPa 0,0 l/m 0,0 km/h SO 9,9 C 12,9 C 0,0 km/h
17.08.2015 02:00 12,2 C 82 % 1011,5 hPa 0,0 l/m 0,0 km/h SO 9,2 C 12,2 C 0,0 km/h
17.08.2015 03:00 12,5 C 81 % 1011,6 hPa 0,0 l/m 0,0 km/h SO 9,3 C 12,5 C 0,0 km/h
17.08.2015 04:00 12,6 C 80 % 1011,6 hPa 0,0 l/m 0,0 km/h SO 9,2 C 12,6 C 0,0 km/h
17.08.2015 05:00 12,6 C 79 % 1011,6 hPa 0,0 l/m 0,0 km/h SO 9,1 C 12,6 C 0,0 km/h
17.08.2015 06:00 12,4 C 79 % 1011,3 hPa 0,0 l/m 0,0 km/h SO 8,9 C 12,4 C 0,0 km/h
17.08.2015 07:00 12,4 C 78 % 1011,3 hPa 0,0 l/m 0,0 km/h SO 8,7 C 12,4 C 0,0 km/h
17.08.2015 08:00 13,8 C 77 % 1011,1 hPa 0,0 l/m 0,0 km/h SO 9,8 C 13,8 C 0,0 km/h
17.08.2015 09:00 15,8 C 81 % 1011,3 hPa 0,0 l/m 0,0 km/h W-SW 12,5 C 15,8 C 0,0 km/h
17.08.2015 10:00 18,4 C 84 % 1011,3 hPa 0,0 l/m 0,0 km/h W 15,6 C 18,4 C 0,0 km/h
17.08.2015 11:00 21,1 C 68 % 1011,4 hPa 0,0 l/m 0,0 km/h W 15,0 C 21,1 C 0,0 km/h
17.08.2015 12:00 22,0 C 61 % 1011,3 hPa 0,0 l/m 1,9 km/h W-NW 14,1 C 22,0 C 1,1 km/h
17.08.2015 13:00 24,9 C 51 % 1011,1 hPa 0,0 l/m 0,0 km/h W-NW 14,1 C 24,9 C 0,0 km/h
17.08.2015 14:00 23,4 C 49 % 1010,8 hPa 0,0 l/m 8,4 km/h W-NW 12,1 C 22,8 C 4,7 km/h
17.08.2015 15:00 23,6 C 49 % 1010,7 hPa 0,0 l/m 0,0 km/h W-NW 12,2 C 23,6 C 0,0 km/h
17.08.2015 16:00 22,2 C 51 % 1010,6 hPa 0,0 l/m 0,0 km/h W-NW 11,6 C 22,2 C 0,0 km/h
17.08.2015 17:00 23,3 C 42 % 1010,3 hPa 0,0 l/m 25,9 km/h N-NO 9,7 C 19,8 C 14,4 km/h
17.08.2015 18:00 23,9 C 48 % 1010,3 hPa 0,0 l/m 0,0 km/h N-NO 12,2 C 23,9 C 0,0 km/h
17.08.2015 19:00 24,1 C 42 % 1010,4 hPa 0,0 l/m 0,0 km/h N-NO 10,4 C 24,1 C 0,0 km/h
17.08.2015 20:00 19,4 C 55 % 1010,6 hPa 0,0 l/m 0,0 km/h N-NO 10,1 C 19,4 C 0,0 km/h
17.08.2015 21:00 16,1 C 70 % 1011,2 hPa 0,0 l/m 0,0 km/h NO 10,6 C 16,1 C 0,0 km/h
17.08.2015 22:00 16,2 C 73 % 1011,4 hPa 0,0 l/m 0,0 km/h SO 11,4 C 16,2 C 0,0 km/h
17.08.2015 23:00 14,6 C 77 % 1011,5 hPa 0,0 l/m 0,0 km/h SO 10,6 C 14,6 C 0,0 km/h
18.08.2015 00:00 13,0 C 80 % 1011,9 hPa 0,0 l/m 0,0 km/h SO 9,6 C 13,0 C 0,0 km/h
18.08.2015 01:00 11,9 C 83 % 1012,0 hPa 0,0 l/m 0,0 km/h SO 9,1 C 11,9 C 0,0 km/h
18.08.2015 02:00 11,1 C 84 % 1011,8 hPa 0,0 l/m 0,0 km/h O 8,5 C 11,1 C 0,0 km/h
18.08.2015 03:00 10,4 C 85 % 1011,9 hPa 0,0 l/m 0,0 km/h SO 8,0 C 10,4 C 0,0 km/h
18.08.2015 04:00 10,1 C 85 % 1012,0 hPa 0,0 l/m 0,0 km/h O-NO 7,7 C 10,1 C 0,0 km/h
18.08.2015 05:00 9,6 C 85 % 1012,0 hPa 0,0 l/m 0,0 km/h O-SO 7,2 C 9,6 C 0,0 km/h
18.08.2015 06:00 9,0 C 85 % 1012,1 hPa 0,0 l/m 0,0 km/h SO 6,6 C 9,0 C 0,0 km/h
18.08.2015 07:00 8,9 C 84 % 1012,6 hPa 0,0 l/m 0,0 km/h S-SO 6,3 C 8,9 C 0,0 km/h
18.08.2015 08:00 10,8 C 83 % 1012,9 hPa 0,0 l/m 0,0 km/h O-NO 8,0 C 10,8 C 0,0 km/h
18.08.2015 09:00 15,6 C 84 % 1013,0 hPa 0,0 l/m 0,0 km/h W-NW 12,9 C 15,6 C 0,0 km/h
18.08.2015 10:00 18,5 C 73 % 1013,1 hPa 0,0 l/m 0,0 km/h W-NW 13,6 C 18,5 C 0,0 km/h
18.08.2015 11:00 23,2 C 51 % 1013,2 hPa 0,0 l/m 1,9 km/h W 12,5 C 23,2 C 1,1 km/h
18.08.2015 12:00 21,5 C 56 % 1012,8 hPa 0,0 l/m 1,9 km/h W-SW 12,3 C 21,5 C 1,1 km/h
18.08.2015 13:00 24,1 C 46 % 1012,9 hPa 0,0 l/m 3,2 km/h N-NW 11,7 C 24,1 C 1,8 km/h
18.08.2015 14:00 26,1 C 42 % 1012,8 hPa 0,0 l/m 0,0 km/h W 12,2 C 26,1 C 0,0 km/h
18.08.2015 15:00 24,3 C 44 % 1012,8 hPa 0,0 l/m 0,0 km/h W-NW 11,3 C 24,3 C 0,0 km/h
18.08.2015 16:00 26,0 C 40 % 1012,7 hPa 0,0 l/m 5,8 km/h NO 11,3 C 26,0 C 3,2 km/h
18.08.2015 17:00 26,3 C 38 % 1012,8 hPa 0,0 l/m 0,0 km/h W-NW 10,8 C 26,3 C 0,0 km/h
18.08.2015 18:00 29,0 C 34 % 1012,9 hPa 0,0 l/m 1,3 km/h N-NO 11,5 C 29,0 C 0,7 km/h
18.08.2015 19:00 23,0 C 45 % 1013,1 hPa 0,0 l/m 0,0 km/h N 10,4 C 23,0 C 0,0 km/h
18.08.2015 20:00 20,9 C 51 % 1013,5 hPa 0,0 l/m 0,0 km/h SO 10,4 C 20,9 C 0,0 km/h
18.08.2015 21:00 18,5 C 56 % 1014,1 hPa 0,0 l/m 0,0 km/h O-NO 9,6 C 18,5 C 0,0 km/h
18.08.2015 22:00 16,1 C 64 % 1014,5 hPa 0,0 l/m 0,0 km/h S-SO 9,3 C 16,1 C 0,0 km/h
18.08.2015 23:00 15,6 C 67 % 1014,8 hPa 0,0 l/m 2,6 km/h SO 9,5 C 15,6 C 1,4 km/h
19.08.2015 00:00 14,3 C 74 % 1015,0 hPa 0,0 l/m 0,0 km/h O-NO 9,7 C 14,3 C 0,0 km/h
19.08.2015 01:00 14,5 C 75 % 1015,1 hPa 0,0 l/m 0,0 km/h NO 10,1 C 14,5 C 0,0 km/h
19.08.2015 02:00 14,1 C 76 % 1015,4 hPa 0,0 l/m 0,0 km/h NO 9,9 C 14,1 C 0,0 km/h
19.08.2015 03:00 12,4 C 79 % 1015,5 hPa 0,0 l/m 0,0 km/h NO 8,9 C 12,4 C 0,0 km/h
19.08.2015 04:00 12,0 C 80 % 1015,8 hPa 0,0 l/m 0,0 km/h NO 8,7 C 12,0 C 0,0 km/h
19.08.2015 05:00 12,1 C 82 % 1015,9 hPa 0,0 l/m 0,0 km/h NO 9,1 C 12,1 C 0,0 km/h
19.08.2015 06:00 12,1 C 83 % 1016,0 hPa 0,0 l/m 0,0 km/h NO 9,3 C 12,1 C 0,0 km/h
19.08.2015 07:00 11,8 C 83 % 1016,2 hPa 0,0 l/m 0,0 km/h NO 9,0 C 11,8 C 0,0 km/h
19.08.2015 08:00 13,0 C 84 % 1016,6 hPa 0,0 l/m 0,0 km/h W-NW 10,4 C 13,0 C 0,0 km/h
19.08.2015 09:00 15,0 C 80 % 1016,8 hPa 0,0 l/m 0,0 km/h SW 11,6 C 15,0 C 0,0 km/h
19.08.2015 10:00 17,5 C 72 % 1016,9 hPa 0,0 l/m 0,0 km/h SW 12,4 C 17,5 C 0,0 km/h
19.08.2015 11:00 18,6 C 67 % 1017,4 hPa 0,0 l/m 0,0 km/h W-NW 12,3 C 18,6 C 0,0 km/h
19.08.2015 12:00 20,4 C 63 % 1017,5 hPa 0,0 l/m 0,0 km/h W-NW 13,1 C 20,4 C 0,0 km/h
19.08.2015 13:00 23,4 C 55 % 1017,3 hPa 0,0 l/m 1,3 km/h NW 13,8 C 23,4 C 0,7 km/h
19.08.2015 14:00 23,6 C 49 % 1017,4 hPa 0,0 l/m 6,5 km/h NW 12,2 C 23,6 C 3,6 km/h
19.08.2015 15:00 23,7 C 49 % 1017,4 hPa 0,0 l/m 3,9 km/h N 12,3 C 23,7 C 2,2 km/h
Min-Datum _ 18.08.15 18.08.15 17.08.15 - 17.08.15 - 18.08.15 18.08.15 17.08.15
_ Min-Zeit 07:04 18:04 17:04 - 00:04 - 07:04 07:04 00:04
Minimum _ 8,9 C 34 % 1010,3 hPa - 0,0 km/h - 6,3 C 8,9 C 0,0 km/h
Max-Datum _ 18.08.15 18.08.15 19.08.15 17.08.15 17.08.15 - 17.08.15 18.08.15 17.08.15
_ Max-Zeit 18:04 03:04 12:04 00:04 17:04 - 10:04 18:04 17:04
Maximum _ 29,0 C 85 % 1017,5 hPa 0,0 l/m 25,9 km/h
N-NO
- 15,6 C 29,0 C 14,4 km/h
N-NO
Durchschnitt _ 17,3 C 67 % 1013,1 hPa #0,0 l/m 1,0 km/h SO 10,6 C 17,2 C 0,6 km/h
www.sexauwetter.de